Time;durP1;ratioP1;P1;durP2;ratioP2;P2;SDS_P1;SDS_P2;PMS_P1;PMS_P2;Temp;Humidity;BMP_temperature;BMP_pressure;BME280_temperature;BME280_humidity;BME280_pressure;Samples;Min_cycle;Max_cycle;Signal;HPM_P1;HPM_P2
2021/12/12 00:02:08;;;;;;;11.57;3.90;;;;;;;-145.69;100.00;73380.81;5075524;28;20198;-80
2021/12/12 00:04:37;;;;;;;8.43;4.83;;;;;;;-145.69;100.00;73384.78;5075601;28;20281;-80
2021/12/12 00:07:09;;;;;;;10.17;5.00;;;;;;;-145.69;100.00;73380.81;5075332;28;20202;-80
2021/12/12 00:09:40;;;;;;;9.13;3.73;;;;;;;-145.69;100.00;73388.78;5075745;28;20256;-79
2021/12/12 00:12:12;;;;;;;9.00;4.23;;;;;;;-145.69;100.00;73376.81;5075575;28;20252;-79
2021/12/12 00:14:39;;;;;;;7.37;3.90;;;;;;;-145.69;100.00;73378.81;5075523;28;20264;-79
2021/12/12 00:17:08;;;;;;;11.63;4.10;;;;;;;-145.69;100.00;73384.78;5074982;28;20669;-79
2021/12/12 00:19:35;;;;;;;7.13;3.87;;;;;;;-145.69;100.00;73384.78;5075092;28;20558;-79
2021/12/12 00:22:06;;;;;;;9.33;4.00;;;;;;;-145.69;100.00;73384.78;5075241;28;20195;-78
2021/12/12 00:24:33;;;;;;;7.50;3.73;;;;;;;-145.69;100.00;73384.78;5075300;28;20608;-78
2021/12/12 00:27:01;;;;;;;7.90;3.60;;;;;;;-145.69;100.00;73388.78;5075273;28;20210;-78
2021/12/12 00:29:29;;;;;;;5.90;3.27;;;;;;;-145.69;100.00;73384.78;5075427;28;20206;-79
2021/12/12 00:31:59;;;;;;;6.33;3.50;;;;;;;-145.69;100.00;73384.78;5075050;28;20589;-79
2021/12/12 00:34:27;;;;;;;7.53;3.40;;;;;;;-145.69;100.00;73384.78;5074626;28;20648;-78
2021/12/12 00:36:53;;;;;;;8.03;3.17;;;;;;;-145.69;100.00;73384.78;5074911;28;20646;-79
2021/12/12 00:39:23;;;;;;;7.87;3.30;;;;;;;-145.69;100.00;73392.75;5075050;28;20225;-78
2021/12/12 00:41:52;;;;;;;6.10;3.93;;;;;;;-145.69;100.00;73408.69;5067451;28;20203;-78
2021/12/12 00:44:22;;;;;;;9.90;3.10;;;;;;;-145.69;100.00;73398.72;5054814;28;20200;-78
2021/12/12 00:46:49;;;;;;;5.23;3.07;;;;;;;-145.69;100.00;73392.75;5054743;28;20651;-78
2021/12/12 00:49:17;;;;;;;6.83;3.90;;;;;;;-145.69;100.00;73388.78;5055134;28;20203;-77
2021/12/12 00:51:45;;;;;;;6.10;3.33;;;;;;;-145.69;100.00;73394.75;5074470;28;20574;-78
2021/12/12 00:54:13;;;;;;;6.50;3.47;;;;;;;-145.69;100.00;73398.72;5074520;28;20235;-77
2021/12/12 00:56:44;;;;;;;6.57;3.23;;;;;;;-145.69;100.00;73404.69;5074667;28;20657;-78
2021/12/12 00:59:11;;;;;;;6.27;3.50;;;;;;;-145.69;100.00;73406.69;5074420;28;20198;-78
2021/12/12 01:01:44;;;;;;;9.00;4.17;;;;;;;-145.69;100.00;73416.66;5074860;28;20203;-78
2021/12/12 01:04:16;;;;;;;6.30;3.23;;;;;;;-145.69;100.00;73416.66;5074314;28;20234;-77
2021/12/12 01:06:43;;;;;;;6.47;3.00;;;;;;;-145.69;100.00;73408.69;5074315;28;20199;-78
2021/12/12 01:09:14;;;;;;;5.33;3.17;;;;;;;-145.69;100.00;73406.69;5074278;28;20645;-77
2021/12/12 01:11:45;;;;;;;5.07;3.40;;;;;;;-145.69;100.00;73404.69;5073131;28;20345;-78
2021/12/12 01:14:17;;;;;;;6.67;3.50;;;;;;;-145.69;100.00;73410.66;5074297;28;20657;-78
2021/12/12 01:16:48;;;;;;;7.60;3.33;;;;;;;-145.69;100.00;73416.66;5053219;28;20203;-78
2021/12/12 01:19:19;;;;;;;5.07;3.37;;;;;;;-145.69;100.00;73408.69;5054431;28;20207;-78
2021/12/12 01:21:48;;;;;;;6.60;3.77;;;;;;;-145.69;100.00;73412.66;5054236;28;20226;-79
2021/12/12 01:24:19;;;;;;;7.33;3.47;;;;;;;-145.69;100.00;73418.63;5071477;28;20202;-78
2021/12/12 01:26:47;;;;;;;7.63;3.87;;;;;;;-145.69;100.00;73422.63;5074284;28;20203;-78
2021/12/12 01:29:14;;;;;;;8.73;4.50;;;;;;;-145.69;100.00;73428.59;5074154;28;20205;-78
2021/12/12 01:31:47;;;;;;;7.70;4.00;;;;;;;-145.69;100.00;73428.59;5074105;28;20279;-79
2021/12/12 01:34:17;;;;;;;8.10;4.00;;;;;;;-145.69;100.00;73428.59;5073965;28;20230;-78
2021/12/12 01:36:54;;;;;;;10.13;4.20;;;;;;;-145.69;100.00;73432.56;5073518;28;20195;-78
2021/12/12 01:39:23;;;;;;;6.93;3.63;;;;;;;-145.69;100.00;73428.59;5073662;28;20271;-78
2021/12/12 01:41:55;;;;;;;6.27;3.90;;;;;;;-145.69;100.00;73434.56;5073781;28;20199;-79
2021/12/12 01:44:25;;;;;;;6.43;4.20;;;;;;;-145.69;100.00;73434.56;5073690;28;20711;-78
2021/12/12 01:46:58;;;;;;;8.23;3.70;;;;;;;-145.69;100.00;73432.56;5073466;28;20680;-78
2021/12/12 01:49:31;;;;;;;6.73;3.80;;;;;;;-145.69;100.00;73434.56;5073579;28;20201;-78
2021/12/12 01:51:58;;;;;;;5.23;3.30;;;;;;;-145.69;100.00;73434.56;5073068;28;20657;-78
2021/12/12 01:54:43;;;;;;;6.50;3.50;;;;;;;-145.69;100.00;73432.56;5073554;28;20237;-78
2021/12/12 01:57:12;;;;;;;6.60;3.40;;;;;;;-145.69;100.00;73436.56;5073354;28;20209;-78
2021/12/12 01:59:42;;;;;;;6.03;4.03;;;;;;;-145.69;100.00;73434.56;5073350;28;20195;-78
2021/12/12 02:02:12;;;;;;;9.97;3.80;;;;;;;-145.69;100.00;73434.56;5073563;28;20202;-79
2021/12/12 02:04:43;;;;;;;8.83;3.83;;;;;;;-145.69;100.00;73432.56;5073647;28;20576;-79
2021/12/12 02:07:13;;;;;;;5.50;3.43;;;;;;;-145.69;100.00;73436.56;5073520;28;20195;-78
2021/12/12 02:09:41;;;;;;;6.90;3.33;;;;;;;-145.69;100.00;73438.53;5073372;28;20244;-79
2021/12/12 02:12:09;;;;;;;8.37;3.50;;;;;;;-145.69;100.00;73456.47;5072748;28;20226;-79
2021/12/12 02:14:38;;;;;;;7.57;4.03;;;;;;;-145.69;100.00;73448.50;5053328;28;20200;-79
2021/12/12 02:17:14;;;;;;;8.20;3.83;;;;;;;-145.69;100.00;73462.44;5053149;28;20206;-79
2021/12/12 02:19:54;;;;;;;5.80;3.40;;;;;;;-145.69;100.00;73460.44;5053087;28;20221;-79
2021/12/12 02:22:46;;;;;;;6.03;3.03;;;;;;;-145.69;100.00;73450.50;5052897;28;20203;-79
2021/12/12 02:36:19;;;;;;;7.73;3.33;;;;;;;-145.69;100.00;73466.41;5072974;28;20275;-79
2021/12/12 02:38:48;;;;;;;7.53;3.47;;;;;;;-145.69;100.00;73472.38;5073151;28;20206;-79
2021/12/12 02:41:19;;;;;;;6.37;2.90;;;;;;;-145.69;100.00;73466.41;5072780;28;20225;-79
2021/12/12 02:43:48;;;;;;;5.90;3.27;;;;;;;-145.69;100.00;73478.34;5073138;28;20203;-79
2021/12/12 02:46:18;;;;;;;5.97;3.17;;;;;;;-145.69;100.00;73486.31;5072686;28;20195;-79
2021/12/12 02:48:46;;;;;;;4.27;2.77;;;;;;;-145.69;100.00;73482.34;5072903;28;20543;-79
2021/12/12 02:51:17;;;;;;;5.47;3.20;;;;;;;-145.69;100.00;73478.34;5072547;28;20226;-79
2021/12/12 02:53:47;;;;;;;6.70;2.93;;;;;;;-145.69;100.00;73492.28;5072417;28;20237;-78
2021/12/12 02:56:18;;;;;;;4.57;2.90;;;;;;;-145.69;100.00;73490.31;5072850;28;20203;-79
2021/12/12 02:58:45;;;;;;;5.70;2.60;;;;;;;-145.69;100.00;73492.28;5072839;28;20205;-79
2021/12/12 03:01:15;;;;;;;3.93;2.83;;;;;;;-145.69;100.00;73486.31;5072828;28;20214;-79
2021/12/12 03:03:43;;;;;;;5.33;2.80;;;;;;;-145.69;100.00;73492.28;5072571;28;20198;-79
2021/12/12 03:06:13;;;;;;;8.23;2.33;;;;;;;-145.69;100.00;73492.28;5072615;28;20636;-79
2021/12/12 03:08:44;;;;;;;3.87;2.53;;;;;;;-145.69;100.00;73496.28;5072818;28;20616;-79
2021/12/12 03:11:12;;;;;;;3.33;2.23;;;;;;;-145.69;100.00;73496.28;5072417;28;20218;-79
2021/12/12 03:13:40;;;;;;;6.27;2.77;;;;;;;-145.69;100.00;73490.31;5072699;28;20199;-79
2021/12/12 03:16:08;;;;;;;5.50;2.60;;;;;;;-145.69;100.00;73498.28;5072725;28;20199;-78
2021/12/12 03:18:39;;;;;;;4.70;2.00;;;;;;;-145.69;100.00;73502.25;5072433;28;20202;-78
2021/12/12 03:21:15;;;;;;;3.83;1.90;;;;;;;-145.69;100.00;73492.28;5073113;28;20290;-78
2021/12/12 03:23:43;;;;;;;1.67;1.23;;;;;;;-145.69;100.00;73488.31;5072536;28;20787;-78
2021/12/12 03:26:13;;;;;;;2.87;2.00;;;;;;;-145.69;100.00;73494.28;5072948;28;20218;-78
2021/12/12 03:28:43;;;;;;;2.53;1.73;;;;;;;-145.69;100.00;73510.22;5072713;28;20206;-78
2021/12/12 03:31:14;;;;;;;3.43;2.00;;;;;;;-145.69;100.00;73540.06;5072554;28;20227;-78
2021/12/12 03:33:40;;;;;;;3.73;2.57;;;;;;;-145.69;100.00;73556.00;5072813;28;20258;-78
2021/12/12 03:36:09;;;;;;;5.00;2.40;;;;;;;-145.69;100.00;73577.91;5075647;28;20248;-78
2021/12/12 03:38:38;;;;;;;4.60;2.57;;;;;;;-145.69;100.00;73607.78;5076356;28;20203;-78
2021/12/12 03:41:08;;;;;;;6.50;2.10;;;;;;;-145.69;100.00;73631.66;5076299;28;20249;-78
2021/12/12 03:43:37;;;;;;;3.30;2.00;;;;;;;-145.69;100.00;73651.56;5075986;28;20201;-77
2021/12/12 03:46:10;;;;;;;6.33;2.27;;;;;;;-145.69;100.00;73667.50;5076535;28;20203;-77
2021/12/12 03:48:39;;;;;;;3.33;2.17;;;;;;;-145.69;100.00;73671.47;5076272;28;20253;-77
2021/12/12 03:51:07;;;;;;;2.77;1.93;;;;;;;-145.69;100.00;73695.38;5075974;28;20233;-78
2021/12/12 03:53:36;;;;;;;2.67;2.00;;;;;;;-145.69;100.00;73711.31;5075811;28;20227;-78
2021/12/12 03:56:05;;;;;;;4.33;2.20;;;;;;;-145.69;100.00;73711.31;5075771;28;20203;-77
2021/12/12 03:58:31;;;;;;;5.63;1.60;;;;;;;-145.69;100.00;73727.22;5075901;28;20225;-78
2021/12/12 04:01:03;;;;;;;2.83;2.00;;;;;;;-145.69;100.00;73747.13;5075777;28;20198;-78
2021/12/12 04:03:31;;;;;;;3.67;2.07;;;;;;;-145.69;100.00;73759.09;5075727;28;20215;-78
2021/12/12 04:06:02;;;;;;;2.87;1.87;;;;;;;-145.69;100.00;73775.00;5075669;28;20209;-78
2021/12/12 04:08:32;;;;;;;4.07;2.40;;;;;;;-145.69;100.00;73773.03;5075410;28;20645;-77
2021/12/12 04:10:59;;;;;;;3.97;2.27;;;;;;;-145.69;100.00;73794.94;5075468;28;20207;-78
2021/12/12 04:13:25;;;;;;;4.07;2.27;;;;;;;-145.69;100.00;73810.84;5075549;28;20203;-77
2021/12/12 04:15:53;;;;;;;4.97;2.10;;;;;;;-145.69;100.00;73814.84;5075494;28;20653;-77
2021/12/12 04:18:22;;;;;;;3.30;2.10;;;;;;;-145.69;100.00;73818.81;5075246;28;20194;-78
2021/12/12 04:20:49;;;;;;;3.20;2.27;;;;;;;-145.69;100.00;73802.88;5075496;28;20395;-77
2021/12/12 04:23:17;;;;;;;4.63;2.27;;;;;;;-145.69;100.00;73790.94;5075345;28;20203;-77
2021/12/12 04:25:44;;;;;;;5.60;2.33;;;;;;;-145.69;100.00;73798.91;5074863;28;20653;-78
2021/12/12 04:28:11;;;;;;;3.63;2.57;;;;;;;-145.69;100.00;73781.00;5075483;28;20213;-77
2021/12/12 04:30:39;;;;;;;3.63;2.13;;;;;;;-145.69;100.00;73802.88;5075329;28;20198;-77
2021/12/12 04:33:06;;;;;;;3.97;2.47;;;;;;;-145.69;100.00;73816.81;5064543;28;20231;-77
2021/12/12 04:35:35;;;;;;;3.23;2.20;;;;;;;-145.69;100.00;73816.81;5055077;28;20200;-77
2021/12/12 04:38:04;;;;;;;3.23;2.43;;;;;;;-145.69;100.00;73822.81;5055056;28;20621;-77
2021/12/12 04:40:35;;;;;;;4.60;2.33;;;;;;;-145.69;100.00;73818.81;5054785;28;20670;-77
2021/12/12 04:43:03;;;;;;;4.60;2.57;;;;;;;-145.69;100.00;73842.72;5069667;28;20210;-77
2021/12/12 04:45:50;;;;;;;3.63;2.23;;;;;;;-145.69;100.00;73832.75;5074314;28;20195;-77
2021/12/12 04:51:16;;;;;;;3.47;2.37;;;;;;;-145.69;100.00;73826.78;5074857;28;20202;-78
2021/12/12 04:53:48;;;;;;;3.90;2.20;;;;;;;-145.69;100.00;73842.72;5074482;28;20230;-77
2021/12/12 04:56:18;;;;;;;3.73;2.50;;;;;;;-145.69;100.00;73842.72;5074808;28;20264;-77
2021/12/12 04:58:50;;;;;;;4.83;2.23;;;;;;;-145.69;100.00;73830.75;5074273;28;20305;-77
2021/12/12 05:01:21;;;;;;;4.33;1.97;;;;;;;-145.69;100.00;73808.88;5074879;28;20226;-77
2021/12/12 05:03:53;;;;;;;5.83;2.80;;;;;;;-145.69;100.00;73838.72;5074594;28;20214;-77
2021/12/12 05:06:26;;;;;;;4.63;2.70;;;;;;;-145.69;100.00;73832.75;5074586;28;20206;-77
2021/12/12 05:09:00;;;;;;;6.07;2.37;;;;;;;-145.69;100.00;73846.69;5074599;28;20199;-78
2021/12/12 05:11:31;;;;;;;4.57;2.70;;;;;;;-145.69;100.00;73866.59;5074786;28;20227;-77
2021/12/12 05:14:05;;;;;;;5.37;2.50;;;;;;;-145.69;100.00;73854.66;5074907;28;20203;-77
2021/12/12 05:16:38;;;;;;;7.17;2.67;;;;;;;-145.69;100.00;73856.66;5054336;28;20236;-77
2021/12/12 05:19:10;;;;;;;4.70;2.53;;;;;;;-145.69;100.00;73864.63;5054520;28;20206;-77
2021/12/12 05:21:41;;;;;;;3.93;2.33;;;;;;;-145.69;100.00;73886.50;5054802;28;20604;-77
2021/12/12 05:24:11;;;;;;;6.07;2.50;;;;;;;-145.69;100.00;73896.47;5054509;28;20207;-78
2021/12/12 05:26:43;;;;;;;4.23;2.07;;;;;;;-145.69;100.00;73918.38;5054415;28;20207;-77
2021/12/12 05:29:15;;;;;;;3.53;2.07;;;;;;;-145.69;100.00;73922.34;5054321;28;20226;-78
2021/12/12 05:31:47;;;;;;;4.07;2.20;;;;;;;-145.69;100.00;73884.53;5065691;28;20222;-77
2021/12/12 05:34:16;;;;;;;3.43;1.93;;;;;;;-145.69;100.00;73884.53;5073858;28;20206;-77
2021/12/12 05:36:45;;;;;;;5.30;2.57;;;;;;;-145.69;100.00;73876.56;5073683;28;20206;-77
2021/12/12 05:39:12;;;;;;;3.60;2.20;;;;;;;-145.69;100.00;73890.50;5074212;28;20547;-77
2021/12/12 05:41:39;;;;;;;6.07;2.63;;;;;;;-145.69;100.00;73894.47;5074041;28;20214;-78
2021/12/12 05:44:06;;;;;;;4.97;2.53;;;;;;;-145.69;100.00;73874.56;5073915;28;20198;-77
2021/12/12 05:46:33;;;;;;;3.63;2.20;;;;;;;-145.69;100.00;73870.59;5073797;28;20566;-77
2021/12/12 05:49:04;;;;;;;3.33;2.20;;;;;;;-145.69;100.00;73882.53;5073805;28;20198;-77
2021/12/12 05:51:32;;;;;;;4.00;2.33;;;;;;;-145.69;100.00;73890.50;5073756;28;20352;-77
2021/12/12 05:54:00;;;;;;;3.57;2.13;;;;;;;-145.69;100.00;73898.47;5073433;28;20223;-77
2021/12/12 05:56:30;;;;;;;3.53;2.30;;;;;;;-145.69;100.00;73922.34;5073708;28;20221;-77
2021/12/12 05:58:58;;;;;;;4.43;2.27;;;;;;;-145.69;100.00;73944.25;5073133;28;20205;-76
2021/12/12 06:01:25;;;;;;;4.33;2.27;;;;;;;-145.69;100.00;73930.31;5073710;28;20199;-77
2021/12/12 06:03:53;;;;;;;3.63;2.10;;;;;;;-145.69;100.00;73938.28;5073406;28;20387;-77
2021/12/12 06:06:28;;;;;;;6.33;2.83;;;;;;;-145.69;100.00;73954.22;5073317;28;20202;-77
2021/12/12 06:08:57;;;;;;;4.40;2.37;;;;;;;-145.69;100.00;73962.19;5073321;28;20657;-77
2021/12/12 06:11:29;;;;;;;5.00;2.60;;;;;;;-145.69;100.00;73958.19;5073159;28;20252;-77
2021/12/12 06:13:57;;;;;;;5.43;2.53;;;;;;;-145.69;100.00;73978.09;5073052;28;20253;-77
2021/12/12 06:16:23;;;;;;;3.53;2.30;;;;;;;-145.69;100.00;73986.06;5073282;28;20202;-77
2021/12/12 06:18:54;;;;;;;3.97;2.70;;;;;;;-145.69;100.00;73998.03;5073093;28;20678;-77
2021/12/12 06:21:21;;;;;;;8.03;2.73;;;;;;;-145.69;100.00;73988.06;5072890;28;20195;-77
2021/12/12 06:23:48;;;;;;;5.47;2.93;;;;;;;-145.69;100.00;73992.03;5072384;28;20232;-76
2021/12/12 06:26:14;;;;;;;4.90;2.70;;;;;;;-145.69;100.00;73990.06;5054960;28;20258;-77
2021/12/12 06:28:42;;;;;;;5.03;2.73;;;;;;;-145.69;100.00;73996.03;5053155;28;20211;-76
2021/12/12 06:31:10;;;;;;;7.70;2.80;;;;;;;-145.69;100.00;73998.03;5053189;28;20245;-76
2021/12/12 06:33:39;;;;;;;3.57;2.30;;;;;;;-145.69;100.00;74009.97;5053303;28;20231;-77
2021/12/12 06:36:06;;;;;;;4.60;2.90;;;;;;;-145.69;100.00;74000.00;5053228;28;20599;-77
2021/12/12 06:38:33;;;;;;;5.80;2.83;;;;;;;-145.69;100.00;74002.00;5069624;28;20259;-77
2021/12/12 06:41:00;;;;;;;7.73;3.07;;;;;;;-145.69;100.00;74013.94;5072688;28;20195;-77
2021/12/12 06:43:27;;;;;;;4.97;2.70;;;;;;;-145.69;100.00;74005.97;5072746;28;20657;-77
2021/12/12 06:45:55;;;;;;;5.87;3.37;;;;;;;-145.69;100.00;73968.16;5072789;28;20245;-77
2021/12/12 06:48:22;;;;;;;9.00;3.80;;;;;;;-145.69;100.00;73974.13;5072938;28;20203;-77
2021/12/12 06:50:52;;;;;;;5.67;3.60;;;;;;;-145.69;100.00;73982.09;5072736;28;20202;-77
2021/12/12 06:53:21;;;;;;;5.20;2.83;;;;;;;-145.69;100.00;73978.09;5072215;28;20699;-77
2021/12/12 06:55:49;;;;;;;9.17;4.17;;;;;;;-145.69;100.00;73976.13;5072752;28;20199;-77
2021/12/12 06:58:18;;;;;;;10.07;3.70;;;;;;;-145.69;100.00;73992.03;5072597;28;20218;-77
2021/12/12 07:00:47;;;;;;;8.93;3.80;;;;;;;-145.69;100.00;73992.03;5072685;28;20264;-77
2021/12/12 07:03:16;;;;;;;7.27;3.53;;;;;;;-145.69;100.00;73990.06;5072643;28;20202;-77
2021/12/12 07:05:43;;;;;;;8.73;3.50;;;;;;;-145.69;100.00;73992.03;5072572;28;20199;-76
2021/12/12 07:08:11;;;;;;;7.50;3.77;;;;;;;-145.69;100.00;73978.09;5072849;28;20209;-76
2021/12/12 07:10:37;;;;;;;9.63;4.63;;;;;;;-145.69;100.00;73978.09;5074662;28;20191;-77
2021/12/12 07:13:06;;;;;;;8.33;4.37;;;;;;;-145.69;100.00;73998.03;5076556;28;20570;-77
2021/12/12 07:15:39;;;;;;;6.10;3.57;;;;;;;-145.69;100.00;74007.97;5076585;28;20211;-77
2021/12/12 07:18:09;;;;;;;7.90;3.57;;;;;;;-145.69;100.00;73998.03;5076462;28;20203;-77
2021/12/12 07:20:38;;;;;;;6.53;4.00;;;;;;;-145.69;100.00;74002.00;5076919;28;20204;-77
2021/12/12 07:23:05;;;;;;;5.67;3.23;;;;;;;-145.69;100.00;74013.94;5076724;28;20198;-77
2021/12/12 07:25:34;;;;;;;6.53;3.47;;;;;;;-145.69;100.00;74017.94;5076296;28;20195;-77
2021/12/12 07:28:01;;;;;;;5.87;3.23;;;;;;;-145.69;100.00;74011.97;5076373;28;20289;-76
2021/12/12 07:30:27;;;;;;;7.03;3.13;;;;;;;-145.69;100.00;74007.97;5076202;28;20256;-77
2021/12/12 07:32:55;;;;;;;8.63;3.40;;;;;;;-145.69;100.00;73998.03;5076010;28;20233;-77
2021/12/12 07:35:22;;;;;;;5.77;3.33;;;;;;;-145.69;100.00;74007.97;5075966;28;20221;-77
2021/12/12 07:37:52;;;;;;;6.20;2.93;;;;;;;-145.69;100.00;74007.97;5076250;28;20569;-77
2021/12/12 07:40:20;;;;;;;4.47;2.63;;;;;;;-145.69;100.00;74002.00;5075745;28;20241;-77
2021/12/12 07:42:47;;;;;;;4.77;2.70;;;;;;;-145.69;100.00;74009.97;5076005;28;20683;-77
2021/12/12 07:45:15;;;;;;;4.50;2.60;;;;;;;-145.69;100.00;74007.97;5075679;28;20202;-77
2021/12/12 07:47:43;;;;;;;6.33;3.10;;;;;;;-145.69;100.00;73998.03;5075760;28;20690;-77
2021/12/12 07:50:13;;;;;;;8.40;3.30;;;;;;;-145.69;100.00;74000.00;5076006;28;20238;-76
2021/12/12 07:52:40;;;;;;;6.80;3.90;;;;;;;-145.69;100.00;73996.03;5075626;28;20231;-77
2021/12/12 07:55:10;;;;;;;7.57;4.03;;;;;;;-145.69;100.00;73990.06;5075524;28;20758;-77
2021/12/12 07:57:36;;;;;;;6.20;3.30;;;;;;;-145.69;100.00;73996.03;5075566;28;20194;-77
2021/12/12 08:00:07;;;;;;;7.30;3.40;;;;;;;-145.69;100.00;73998.03;5075698;28;20550;-77
2021/12/12 08:02:33;;;;;;;5.80;2.90;;;;;;;-145.69;100.00;73994.03;5075613;28;20596;-77
2021/12/12 08:05:00;;;;;;;8.20;3.50;;;;;;;-145.69;100.00;74002.00;5075509;28;20199;-76
2021/12/12 08:07:29;;;;;;;6.00;3.30;;;;;;;-145.69;100.00;73994.03;5075521;28;20205;-76
2021/12/12 08:09:55;;;;;;;5.73;2.60;;;;;;;-145.69;100.00;73980.09;5075622;28;20198;-77
2021/12/12 08:12:27;;;;;;;4.63;2.67;;;;;;;-145.69;100.00;73970.16;5075231;28;20282;-77
2021/12/12 08:14:54;;;;;;;5.80;3.23;;;;;;;-145.69;100.00;73960.19;5075449;28;20691;-77
2021/12/12 08:17:23;;;;;;;5.03;2.37;;;;;;;-145.69;100.00;73970.16;5075582;28;20205;-77
2021/12/12 08:19:50;;;;;;;4.40;2.40;;;;;;;-145.69;100.00;73948.25;5075458;28;20614;-77
2021/12/12 08:22:18;;;;;;;4.13;2.70;;;;;;;-145.69;100.00;73948.25;5073955;28;20562;-78
2021/12/12 08:24:45;;;;;;;4.23;2.30;;;;;;;-145.69;100.00;73948.25;5057307;28;20605;-77
2021/12/12 08:27:12;;;;;;;4.07;2.07;;;;;;;-145.69;100.00;73930.31;5055190;28;20211;-77
2021/12/12 08:29:41;;;;;;;4.50;2.20;;;;;;;-145.69;100.00;73908.41;5055276;28;20286;-78
2021/12/12 08:32:11;;;;;;;3.30;1.87;;;;;;;-145.69;100.00;73890.50;5072534;28;20222;-78
2021/12/12 08:34:38;;;;;;;4.40;2.20;;;;;;;-145.69;100.00;73864.63;5074958;28;20203;-79
2021/12/12 08:37:06;;;;;;;4.93;2.37;;;;;;;-145.69;100.00;73846.69;5075056;28;20203;-79
2021/12/12 08:39:33;;;;;;;4.50;2.43;;;;;;;-145.69;100.00;73828.78;5074895;28;20684;-80
2021/12/12 08:42:01;;;;;;;4.97;2.40;;;;;;;-145.69;100.00;73804.88;5075220;28;20276;-79
2021/12/12 08:44:29;;;;;;;5.67;2.30;;;;;;;-145.69;100.00;73777.00;5074820;28;20557;-80
2021/12/12 08:46:59;;;;;;;5.27;2.63;;;;;;;-145.69;100.00;73765.06;5074842;28;20194;-79
2021/12/12 08:49:33;;;;;;;4.43;2.50;;;;;;;-145.69;100.00;73751.13;5074783;28;20206;-80
2021/12/12 08:52:02;;;;;;;2.60;1.83;;;;;;;-145.69;100.00;73723.25;5074335;28;20205;-78
2021/12/12 08:54:31;;;;;;;2.67;1.57;;;;;;;-145.69;100.00;73703.34;5074409;28;20242;-78
2021/12/12 08:57:05;;;;;;;3.97;2.03;;;;;;;-145.69;100.00;73679.44;5074838;28;20195;-80
2021/12/12 08:59:34;;;;;;;2.80;2.03;;;;;;;-145.69;100.00;73647.59;5074509;28;20206;-79
2021/12/12 09:02:05;;;;;;;7.57;1.80;;;;;;;-145.69;100.00;73615.72;5074569;28;20205;-79
2021/12/12 09:04:35;;;;;;;1.93;1.40;;;;;;;-145.69;100.00;73607.78;5074200;28;20653;-79
2021/12/12 09:07:08;;;;;;;3.13;1.67;;;;;;;-145.69;100.00;73591.84;5054726;28;20294;-79
2021/12/12 09:09:40;;;;;;;2.97;2.17;;;;;;;-145.69;100.00;73625.69;5054503;28;20203;-79
2021/12/12 09:12:12;;;;;;;8.47;2.43;;;;;;;-145.69;100.00;73611.75;5054379;28;20203;-80
2021/12/12 09:14:43;;;;;;;4.43;1.97;;;;;;;-145.69;100.00;73595.81;5054115;28;20227;-80
2021/12/12 09:17:17;;;;;;;3.70;2.07;;;;;;;-145.69;100.00;73556.00;5054349;28;20650;-80
2021/12/12 09:19:49;;;;;;;3.97;2.23;;;;;;;-145.69;100.00;73552.03;5056222;28;20210;-80
2021/12/12 09:22:19;;;;;;;3.17;2.10;;;;;;;-145.69;100.00;73556.00;5074261;28;20195;-80
2021/12/12 09:24:57;;;;;;;12.47;2.07;;;;;;;-145.69;100.00;73552.03;5074084;28;20210;-80
2021/12/12 09:27:28;;;;;;;4.23;2.23;;;;;;;-145.69;100.00;73548.03;5074115;28;20203;-79
2021/12/12 09:29:58;;;;;;;3.83;2.37;;;;;;;-145.69;100.00;73542.06;5073831;28;20206;-79
2021/12/12 09:32:31;;;;;;;3.30;2.40;;;;;;;-145.69;100.00;73548.03;5073358;28;20236;-80
2021/12/12 09:35:03;;;;;;;5.77;2.57;;;;;;;-145.69;100.00;73526.16;5073862;28;20207;-80
2021/12/12 09:37:35;;;;;;;4.93;2.47;;;;;;;-145.69;100.00;73496.28;5073323;28;20680;-80
2021/12/12 09:40:12;;;;;;;7.23;2.77;;;;;;;-145.69;100.00;73484.34;5073726;28;20199;-80
2021/12/12 09:42:54;;;;;;;5.43;2.80;;;;;;;-145.69;100.00;73446.50;5073771;28;20684;-80
2021/12/12 09:45:54;;;;;;;4.37;2.70;;;;;;;-145.69;100.00;73428.59;5073770;28;20194;-80
2021/12/12 09:51:39;;;;;;;5.00;2.50;;;;;;;-145.69;100.00;73404.69;5073717;28;20205;-81
2021/12/12 09:54:21;;;;;;;3.83;2.00;;;;;;;-145.69;100.00;73386.78;5073099;28;20226;-81
2021/12/12 09:56:56;;;;;;;2.77;2.07;;;;;;;-145.69;100.00;73331.03;5073194;28;20198;-81
2021/12/12 09:59:41;;;;;;;2.50;1.60;;;;;;;-145.69;100.00;73283.25;5073527;28;20538;-81
2021/12/12 10:02:21;;;;;;;1.70;1.10;;;;;;;-145.69;100.00;73251.41;5073221;28;20195;-81
2021/12/12 10:05:04;;;;;;;1.23;1.10;;;;;;;-145.69;100.00;73239.47;5073279;28;20591;-81
2021/12/12 10:07:44;;;;;;;3.60;2.20;;;;;;;-145.69;99.51;73241.44;5073427;28;20210;-81
2021/12/12 10:10:16;;;;;;;2.80;1.83;;;;;;;-145.69;100.00;73231.50;5072965;28;20611;-84
2021/12/12 10:12:58;;;;;;;3.53;2.00;;;;;;;-145.69;99.79;73199.66;5073293;28;20202;-81
2021/12/12 10:15:27;;;;;;;2.63;1.63;;;;;;;-145.69;98.19;73193.66;5073085;28;20573;-80
2021/12/12 10:17:58;;;;;;;3.77;2.00;;;;;;;-145.69;99.29;73133.94;5073128;28;20210;-80
2021/12/12 10:20:32;;;;;;;2.30;1.40;;;;;;;-145.69;95.00;73110.06;5064064;28;20199;-78
2021/12/12 10:23:09;;;;;;;2.07;1.33;;;;;;;-145.69;91.45;73090.16;5058817;28;20290;-77
2021/12/12 10:25:52;;;;;;;1.00;0.93;;;;;;;-145.69;96.21;73177.75;5072574;28;20198;-76
2021/12/12 10:28:22;;;;;;;3.87;1.83;;;;;;;-145.69;95.22;73161.81;5073041;28;20256;-77
2021/12/12 10:31:00;;;;;;;3.17;1.73;;;;;;;-145.69;94.45;73161.81;5073494;28;20253;-76
2021/12/12 10:33:36;;;;;;;3.43;1.63;;;;;;;-145.69;93.30;73082.19;5073402;28;20230;-79
2021/12/12 10:36:08;;;;;;;1.47;1.10;;;;;;;-145.69;92.55;73118.03;5073236;28;20206;-77
2021/12/12 10:38:38;;;;;;;2.90;1.50;;;;;;;-145.69;92.45;73129.97;5073366;28;20202;-77
2021/12/12 10:41:09;;;;;;;2.50;1.43;;;;;;;-145.69;92.03;73145.91;5073392;28;20194;-78
2021/12/12 10:43:39;;;;;;;3.87;1.50;;;;;;;-145.69;90.73;73114.03;5072834;28;20707;-79
2021/12/12 10:46:11;;;;;;;2.53;1.53;;;;;;;-145.69;91.01;73082.19;5073021;28;20206;-77
2021/12/12 10:48:44;;;;;;;4.13;1.70;;;;;;;-145.69;89.60;73030.44;5073235;28;20202;-77
2021/12/12 10:51:15;;;;;;;3.10;1.93;;;;;;;-145.69;91.88;73082.19;5072760;28;20209;-76
2021/12/12 10:53:48;;;;;;;4.20;2.33;;;;;;;-145.69;89.50;73046.34;5072921;28;20284;-78
2021/12/12 10:56:23;;;;;;;1.73;1.00;;;;;;;-145.69;89.43;73020.47;5073015;28;20203;-77
2021/12/12 10:58:52;;;;;;;2.67;0.80;;;;;;;-145.69;86.83;73022.47;5072702;28;20691;-78
2021/12/12 11:01:26;;;;;;;1.83;1.03;;;;;;;-145.69;85.22;73020.47;5071941;28;20202;-76
2021/12/12 11:03:56;;;;;;;1.67;0.90;;;;;;;-145.69;90.21;73068.25;5072732;28;20227;-76
2021/12/12 11:06:28;;;;;;;0.83;0.70;;;;;;;-145.69;91.37;73042.38;5072825;28;20616;-78
2021/12/12 11:09:00;;;;;;;1.13;0.67;;;;;;;-145.69;89.89;73014.50;5072977;28;20206;-77
2021/12/12 11:11:32;;;;;;;2.80;1.10;;;;;;;-145.69;90.94;73058.31;5072546;28;20607;-77
2021/12/12 11:14:07;;;;;;;0.90;0.70;;;;;;;-145.69;90.14;73072.25;5072746;28;20604;-77
2021/12/12 11:16:37;;;;;;;1.30;0.80;;;;;;;-145.69;89.85;73058.31;5072311;28;20575;-76
2021/12/12 11:19:09;;;;;;;1.87;0.90;;;;;;;-145.69;90.64;73038.41;5072679;28;20558;-77
2021/12/12 11:21:41;;;;;;;1.53;0.87;;;;;;;-145.69;93.41;73058.31;5072050;28;20206;-77
2021/12/12 11:24:14;;;;;;;1.83;1.20;;;;;;;-145.69;89.60;73074.22;5072072;28;20256;-77
2021/12/12 11:26:45;;;;;;;1.90;1.20;;;;;;;-145.69;88.24;73048.34;5072526;28;20203;-77
2021/12/12 11:29:15;;;;;;;1.47;1.13;;;;;;;-145.69;87.58;73000.56;5072319;28;20729;-76
2021/12/12 11:31:46;;;;;;;1.00;1.00;;;;;;;-145.69;87.00;72932.91;5068879;28;20294;-77
2021/12/12 11:34:13;;;;;;;1.43;0.90;;;;;;;-145.69;87.46;73018.50;5071901;28;20218;-78
2021/12/12 11:36:51;;;;;;;1.47;0.90;;;;;;;-145.69;88.00;72982.66;5072344;28;20206;-77
2021/12/12 11:39:24;;;;;;;1.80;1.00;;;;;;;-145.69;89.26;73018.50;5072505;28;20273;-77
2021/12/12 11:41:57;;;;;;;2.20;1.53;;;;;;;-145.69;91.70;73042.38;5072157;28;20203;-77